sensor_id;sensor_type;location;lat;lon;timestamp;P1;durP1;ratioP1;P2;durP2;ratioP2
14892;SDS011;7538;53.626;9.906;2023-09-30T00:01:26;12.45;;;5.10;;
14892;SDS011;7538;53.626;9.906;2023-09-30T00:03:53;13.77;;;4.90;;
14892;SDS011;7538;53.626;9.906;2023-09-30T00:06:20;15.90;;;5.07;;
14892;SDS011;7538;53.626;9.906;2023-09-30T00:08:48;10.98;;;5.03;;
14892;SDS011;7538;53.626;9.906;2023-09-30T00:11:15;12.45;;;4.57;;
14892;SDS011;7538;53.626;9.906;2023-09-30T00:13:43;11.15;;;4.97;;
14892;SDS011;7538;53.626;9.906;2023-09-30T00:16:11;12.88;;;5.30;;
14892;SDS011;7538;53.626;9.906;2023-09-30T00:18:38;10.48;;;4.20;;
14892;SDS011;7538;53.626;9.906;2023-09-30T00:21:05;16.85;;;5.53;;
14892;SDS011;7538;53.626;9.906;2023-09-30T00:23:32;12.18;;;4.85;;
14892;SDS011;7538;53.626;9.906;2023-09-30T00:26:01;10.85;;;4.18;;
14892;SDS011;7538;53.626;9.906;2023-09-30T00:28:27;14.38;;;5.10;;
14892;SDS011;7538;53.626;9.906;2023-09-30T00:30:54;11.23;;;5.03;;
14892;SDS011;7538;53.626;9.906;2023-09-30T00:33:21;12.50;;;4.53;;
14892;SDS011;7538;53.626;9.906;2023-09-30T00:35:48;11.45;;;4.80;;
14892;SDS011;7538;53.626;9.906;2023-09-30T00:38:15;11.45;;;4.93;;
14892;SDS011;7538;53.626;9.906;2023-09-30T00:40:46;10.88;;;4.57;;
14892;SDS011;7538;53.626;9.906;2023-09-30T00:43:19;12.82;;;4.60;;
14892;SDS011;7538;53.626;9.906;2023-09-30T00:45:47;11.40;;;4.13;;
14892;SDS011;7538;53.626;9.906;2023-09-30T00:48:15;11.60;;;4.05;;
14892;SDS011;7538;53.626;9.906;2023-09-30T00:50:42;14.60;;;4.55;;
14892;SDS011;7538;53.626;9.906;2023-09-30T00:53:17;15.65;;;4.15;;
14892;SDS011;7538;53.626;9.906;2023-09-30T00:55:45;10.00;;;4.45;;
14892;SDS011;7538;53.626;9.906;2023-09-30T00:58:12;13.02;;;4.53;;
14892;SDS011;7538;53.626;9.906;2023-09-30T01:00:40;10.20;;;3.78;;
14892;SDS011;7538;53.626;9.906;2023-09-30T01:03:07;13.02;;;4.25;;
14892;SDS011;7538;53.626;9.906;2023-09-30T01:05:34;10.77;;;3.50;;
14892;SDS011;7538;53.626;9.906;2023-09-30T01:08:01;11.18;;;3.97;;
14892;SDS011;7538;53.626;9.906;2023-09-30T01:10:29;13.15;;;3.90;;
14892;SDS011;7538;53.626;9.906;2023-09-30T01:12:55;15.38;;;4.13;;
14892;SDS011;7538;53.626;9.906;2023-09-30T01:15:22;10.93;;;3.58;;
14892;SDS011;7538;53.626;9.906;2023-09-30T01:17:50;16.20;;;4.60;;
14892;SDS011;7538;53.626;9.906;2023-09-30T01:20:18;12.38;;;3.92;;
14892;SDS011;7538;53.626;9.906;2023-09-30T01:22:50;12.25;;;3.72;;
14892;SDS011;7538;53.626;9.906;2023-09-30T01:25:17;11.90;;;3.60;;
14892;SDS011;7538;53.626;9.906;2023-09-30T01:27:44;13.27;;;3.92;;
14892;SDS011;7538;53.626;9.906;2023-09-30T01:30:11;14.95;;;4.45;;
14892;SDS011;7538;53.626;9.906;2023-09-30T01:32:38;11.75;;;3.97;;
14892;SDS011;7538;53.626;9.906;2023-09-30T01:35:06;16.70;;;4.88;;
14892;SDS011;7538;53.626;9.906;2023-09-30T01:37:33;15.57;;;4.20;;
14892;SDS011;7538;53.626;9.906;2023-09-30T01:40:01;13.45;;;4.03;;
14892;SDS011;7538;53.626;9.906;2023-09-30T01:42:33;10.75;;;3.65;;
14892;SDS011;7538;53.626;9.906;2023-09-30T01:44:59;10.45;;;3.92;;
14892;SDS011;7538;53.626;9.906;2023-09-30T01:47:26;12.65;;;3.92;;
14892;SDS011;7538;53.626;9.906;2023-09-30T01:49:53;12.77;;;5.15;;
14892;SDS011;7538;53.626;9.906;2023-09-30T01:52:20;16.33;;;4.55;;
14892;SDS011;7538;53.626;9.906;2023-09-30T01:54:47;11.63;;;4.68;;
14892;SDS011;7538;53.626;9.906;2023-09-30T01:57:15;12.00;;;4.70;;
14892;SDS011;7538;53.626;9.906;2023-09-30T01:59:42;12.63;;;4.47;;
14892;SDS011;7538;53.626;9.906;2023-09-30T02:02:09;13.75;;;4.65;;
14892;SDS011;7538;53.626;9.906;2023-09-30T02:04:36;12.57;;;4.22;;
14892;SDS011;7538;53.626;9.906;2023-09-30T02:07:03;12.00;;;4.32;;
14892;SDS011;7538;53.626;9.906;2023-09-30T02:09:30;13.95;;;5.10;;
14892;SDS011;7538;53.626;9.906;2023-09-30T02:11:56;11.48;;;5.13;;
14892;SDS011;7538;53.626;9.906;2023-09-30T02:14:25;11.73;;;4.28;;
14892;SDS011;7538;53.626;9.906;2023-09-30T02:16:52;14.00;;;5.13;;
14892;SDS011;7538;53.626;9.906;2023-09-30T02:19:19;14.15;;;4.63;;
14892;SDS011;7538;53.626;9.906;2023-09-30T02:21:46;14.40;;;5.32;;
14892;SDS011;7538;53.626;9.906;2023-09-30T02:24:13;13.63;;;4.90;;
14892;SDS011;7538;53.626;9.906;2023-09-30T02:26:40;11.80;;;4.95;;
14892;SDS011;7538;53.626;9.906;2023-09-30T02:29:07;12.73;;;5.22;;
14892;SDS011;7538;53.626;9.906;2023-09-30T02:31:35;11.30;;;5.60;;
14892;SDS011;7538;53.626;9.906;2023-09-30T02:34:02;14.82;;;4.75;;
14892;SDS011;7538;53.626;9.906;2023-09-30T02:36:29;11.15;;;5.20;;
14892;SDS011;7538;53.626;9.906;2023-09-30T02:38:56;15.63;;;5.25;;
14892;SDS011;7538;53.626;9.906;2023-09-30T02:41:24;10.73;;;4.50;;
14892;SDS011;7538;53.626;9.906;2023-09-30T02:43:51;14.57;;;4.90;;
14892;SDS011;7538;53.626;9.906;2023-09-30T02:46:18;14.32;;;5.10;;
14892;SDS011;7538;53.626;9.906;2023-09-30T02:48:46;14.57;;;4.80;;
14892;SDS011;7538;53.626;9.906;2023-09-30T02:51:13;14.07;;;5.45;;
14892;SDS011;7538;53.626;9.906;2023-09-30T02:53:40;16.60;;;5.70;;
14892;SDS011;7538;53.626;9.906;2023-09-30T02:56:07;11.77;;;5.47;;
14892;SDS011;7538;53.626;9.906;2023-09-30T02:58:35;12.05;;;5.30;;
14892;SDS011;7538;53.626;9.906;2023-09-30T03:01:03;10.25;;;5.18;;
14892;SDS011;7538;53.626;9.906;2023-09-30T03:03:31;15.98;;;5.65;;
14892;SDS011;7538;53.626;9.906;2023-09-30T03:06:00;17.05;;;5.80;;
14892;SDS011;7538;53.626;9.906;2023-09-30T03:08:27;13.50;;;5.55;;
14892;SDS011;7538;53.626;9.906;2023-09-30T03:10:55;18.02;;;5.90;;
14892;SDS011;7538;53.626;9.906;2023-09-30T03:13:21;13.75;;;5.43;;
14892;SDS011;7538;53.626;9.906;2023-09-30T03:15:49;12.13;;;5.00;;
14892;SDS011;7538;53.626;9.906;2023-09-30T03:18:16;13.43;;;5.25;;
14892;SDS011;7538;53.626;9.906;2023-09-30T03:20:47;11.68;;;5.25;;
14892;SDS011;7538;53.626;9.906;2023-09-30T03:23:17;13.50;;;5.05;;
14892;SDS011;7538;53.626;9.906;2023-09-30T03:25:44;14.95;;;5.25;;
14892;SDS011;7538;53.626;9.906;2023-09-30T03:28:11;12.57;;;5.95;;
14892;SDS011;7538;53.626;9.906;2023-09-30T03:30:40;15.68;;;5.45;;
14892;SDS011;7538;53.626;9.906;2023-09-30T03:33:06;15.15;;;4.95;;
14892;SDS011;7538;53.626;9.906;2023-09-30T03:35:34;12.98;;;5.45;;
14892;SDS011;7538;53.626;9.906;2023-09-30T03:38:02;15.60;;;5.40;;
14892;SDS011;7538;53.626;9.906;2023-09-30T03:40:31;16.02;;;6.13;;
14892;SDS011;7538;53.626;9.906;2023-09-30T03:42:59;11.63;;;5.00;;
14892;SDS011;7538;53.626;9.906;2023-09-30T03:45:26;14.50;;;5.00;;
14892;SDS011;7538;53.626;9.906;2023-09-30T03:47:53;17.35;;;5.90;;
14892;SDS011;7538;53.626;9.906;2023-09-30T03:50:19;15.43;;;5.85;;
14892;SDS011;7538;53.626;9.906;2023-09-30T03:52:50;15.75;;;5.45;;
14892;SDS011;7538;53.626;9.906;2023-09-30T03:55:17;17.13;;;5.43;;
14892;SDS011;7538;53.626;9.906;2023-09-30T03:57:47;16.55;;;6.60;;
14892;SDS011;7538;53.626;9.906;2023-09-30T04:00:14;21.73;;;5.45;;
14892;SDS011;7538;53.626;9.906;2023-09-30T04:02:44;15.80;;;6.13;;
14892;SDS011;7538;53.626;9.906;2023-09-30T04:05:13;12.63;;;5.32;;
14892;SDS011;7538;53.626;9.906;2023-09-30T04:07:42;13.00;;;5.63;;
14892;SDS011;7538;53.626;9.906;2023-09-30T04:10:09;11.88;;;5.65;;
14892;SDS011;7538;53.626;9.906;2023-09-30T04:12:36;14.00;;;5.57;;
14892;SDS011;7538;53.626;9.906;2023-09-30T04:15:05;17.45;;;5.82;;
14892;SDS011;7538;53.626;9.906;2023-09-30T04:17:34;17.63;;;5.82;;
14892;SDS011;7538;53.626;9.906;2023-09-30T04:20:04;12.02;;;5.47;;
14892;SDS011;7538;53.626;9.906;2023-09-30T04:22:33;12.38;;;5.78;;
14892;SDS011;7538;53.626;9.906;2023-09-30T04:25:00;9.30;;;5.07;;
14892;SDS011;7538;53.626;9.906;2023-09-30T04:27:30;16.08;;;5.15;;
14892;SDS011;7538;53.626;9.906;2023-09-30T04:29:57;15.48;;;5.65;;
14892;SDS011;7538;53.626;9.906;2023-09-30T04:32:25;13.57;;;5.18;;
14892;SDS011;7538;53.626;9.906;2023-09-30T04:34:52;17.25;;;6.15;;
14892;SDS011;7538;53.626;9.906;2023-09-30T04:37:19;11.77;;;5.22;;
14892;SDS011;7538;53.626;9.906;2023-09-30T04:39:46;14.52;;;5.72;;
14892;SDS011;7538;53.626;9.906;2023-09-30T04:42:13;12.80;;;5.30;;
14892;SDS011;7538;53.626;9.906;2023-09-30T04:44:42;18.00;;;5.75;;
14892;SDS011;7538;53.626;9.906;2023-09-30T04:47:09;13.65;;;5.38;;
14892;SDS011;7538;53.626;9.906;2023-09-30T04:49:37;15.27;;;5.57;;
14892;SDS011;7538;53.626;9.906;2023-09-30T04:52:05;15.57;;;5.78;;
14892;SDS011;7538;53.626;9.906;2023-09-30T04:54:33;12.45;;;5.70;;
14892;SDS011;7538;53.626;9.906;2023-09-30T04:57:00;18.00;;;4.78;;
14892;SDS011;7538;53.626;9.906;2023-09-30T04:59:27;17.30;;;6.43;;
14892;SDS011;7538;53.626;9.906;2023-09-30T05:01:54;15.00;;;5.80;;
14892;SDS011;7538;53.626;9.906;2023-09-30T05:04:21;13.23;;;5.50;;
14892;SDS011;7538;53.626;9.906;2023-09-30T05:06:52;16.58;;;6.18;;
14892;SDS011;7538;53.626;9.906;2023-09-30T05:09:19;15.77;;;5.57;;
14892;SDS011;7538;53.626;9.906;2023-09-30T05:11:46;15.30;;;5.43;;
14892;SDS011;7538;53.626;9.906;2023-09-30T05:14:13;11.30;;;5.70;;
14892;SDS011;7538;53.626;9.906;2023-09-30T05:16:41;15.00;;;6.07;;
14892;SDS011;7538;53.626;9.906;2023-09-30T05:19:08;11.07;;;5.65;;
14892;SDS011;7538;53.626;9.906;2023-09-30T05:21:35;14.07;;;5.38;;
14892;SDS011;7538;53.626;9.906;2023-09-30T05:24:04;14.90;;;6.05;;
14892;SDS011;7538;53.626;9.906;2023-09-30T05:26:31;13.93;;;6.32;;
14892;SDS011;7538;53.626;9.906;2023-09-30T05:28:58;18.23;;;7.22;;
14892;SDS011;7538;53.626;9.906;2023-09-30T05:31:25;11.98;;;5.70;;
14892;SDS011;7538;53.626;9.906;2023-09-30T05:33:52;15.63;;;6.45;;
14892;SDS011;7538;53.626;9.906;2023-09-30T05:36:20;12.77;;;6.05;;
14892;SDS011;7538;53.626;9.906;2023-09-30T05:38:47;13.18;;;5.75;;
14892;SDS011;7538;53.626;9.906;2023-09-30T05:41:15;15.98;;;6.80;;
14892;SDS011;7538;53.626;9.906;2023-09-30T05:43:43;14.48;;;5.35;;
14892;SDS011;7538;53.626;9.906;2023-09-30T05:46:10;13.25;;;6.00;;
14892;SDS011;7538;53.626;9.906;2023-09-30T05:48:38;16.85;;;6.05;;
14892;SDS011;7538;53.626;9.906;2023-09-30T05:51:05;16.60;;;6.43;;
14892;SDS011;7538;53.626;9.906;2023-09-30T05:53:32;15.45;;;6.57;;
14892;SDS011;7538;53.626;9.906;2023-09-30T05:56:09;14.75;;;6.13;;
14892;SDS011;7538;53.626;9.906;2023-09-30T05:58:37;15.68;;;5.95;;
14892;SDS011;7538;53.626;9.906;2023-09-30T06:01:07;14.20;;;5.95;;
14892;SDS011;7538;53.626;9.906;2023-09-30T06:03:36;14.80;;;5.80;;
14892;SDS011;7538;53.626;9.906;2023-09-30T06:06:09;13.10;;;6.38;;
14892;SDS011;7538;53.626;9.906;2023-09-30T06:08:37;15.57;;;6.05;;
14892;SDS011;7538;53.626;9.906;2023-09-30T06:11:04;9.45;;;4.88;;
14892;SDS011;7538;53.626;9.906;2023-09-30T06:13:31;14.82;;;5.35;;
14892;SDS011;7538;53.626;9.906;2023-09-30T06:16:00;12.40;;;6.00;;
14892;SDS011;7538;53.626;9.906;2023-09-30T06:18:28;11.30;;;4.95;;
14892;SDS011;7538;53.626;9.906;2023-09-30T06:20:55;11.05;;;4.82;;
14892;SDS011;7538;53.626;9.906;2023-09-30T06:23:22;13.98;;;4.80;;
14892;SDS011;7538;53.626;9.906;2023-09-30T06:25:50;13.57;;;5.13;;
14892;SDS011;7538;53.626;9.906;2023-09-30T06:28:17;10.85;;;4.97;;
14892;SDS011;7538;53.626;9.906;2023-09-30T06:30:50;14.43;;;5.97;;
14892;SDS011;7538;53.626;9.906;2023-09-30T06:33:19;13.23;;;5.03;;
14892;SDS011;7538;53.626;9.906;2023-09-30T06:35:46;13.90;;;5.50;;
14892;SDS011;7538;53.626;9.906;2023-09-30T06:38:16;10.60;;;4.82;;
14892;SDS011;7538;53.626;9.906;2023-09-30T06:40:43;12.55;;;5.38;;
14892;SDS011;7538;53.626;9.906;2023-09-30T06:43:11;11.63;;;5.07;;
14892;SDS011;7538;53.626;9.906;2023-09-30T06:45:40;11.20;;;4.57;;
14892;SDS011;7538;53.626;9.906;2023-09-30T06:48:08;15.82;;;5.25;;
14892;SDS011;7538;53.626;9.906;2023-09-30T06:50:39;12.45;;;4.88;;
14892;SDS011;7538;53.626;9.906;2023-09-30T06:53:10;15.18;;;4.85;;
14892;SDS011;7538;53.626;9.906;2023-09-30T06:55:37;9.93;;;4.28;;
14892;SDS011;7538;53.626;9.906;2023-09-30T06:58:04;12.63;;;4.72;;
14892;SDS011;7538;53.626;9.906;2023-09-30T07:00:32;14.10;;;4.50;;
14892;SDS011;7538;53.626;9.906;2023-09-30T07:03:00;14.88;;;4.50;;
14892;SDS011;7538;53.626;9.906;2023-09-30T07:05:27;9.63;;;4.75;;
14892;SDS011;7538;53.626;9.906;2023-09-30T07:07:56;8.68;;;4.40;;
14892;SDS011;7538;53.626;9.906;2023-09-30T07:10:25;10.05;;;4.10;;
14892;SDS011;7538;53.626;9.906;2023-09-30T07:12:52;11.88;;;4.32;;
14892;SDS011;7538;53.626;9.906;2023-09-30T07:15:19;8.68;;;3.78;;
14892;SDS011;7538;53.626;9.906;2023-09-30T07:17:46;10.57;;;3.50;;
14892;SDS011;7538;53.626;9.906;2023-09-30T07:20:13;8.50;;;3.47;;
14892;SDS011;7538;53.626;9.906;2023-09-30T07:22:42;10.65;;;3.75;;
14892;SDS011;7538;53.626;9.906;2023-09-30T07:25:10;12.65;;;3.92;;
14892;SDS011;7538;53.626;9.906;2023-09-30T07:27:37;11.07;;;3.40;;
14892;SDS011;7538;53.626;9.906;2023-09-30T07:30:04;7.95;;;3.17;;
14892;SDS011;7538;53.626;9.906;2023-09-30T07:32:32;7.15;;;3.38;;
14892;SDS011;7538;53.626;9.906;2023-09-30T07:34:59;11.32;;;3.38;;
14892;SDS011;7538;53.626;9.906;2023-09-30T07:37:26;7.50;;;3.30;;
14892;SDS011;7538;53.626;9.906;2023-09-30T07:39:53;9.07;;;3.22;;
14892;SDS011;7538;53.626;9.906;2023-09-30T07:42:22;10.02;;;4.20;;
14892;SDS011;7538;53.626;9.906;2023-09-30T07:44:49;7.80;;;3.70;;
14892;SDS011;7538;53.626;9.906;2023-09-30T07:47:16;8.20;;;3.25;;
14892;SDS011;7538;53.626;9.906;2023-09-30T07:49:42;7.63;;;3.33;;
14892;SDS011;7538;53.626;9.906;2023-09-30T07:52:09;10.32;;;3.28;;
14892;SDS011;7538;53.626;9.906;2023-09-30T07:54:37;7.88;;;3.13;;
14892;SDS011;7538;53.626;9.906;2023-09-30T07:57:03;8.73;;;2.65;;
14892;SDS011;7538;53.626;9.906;2023-09-30T07:59:32;11.20;;;3.95;;
14892;SDS011;7538;53.626;9.906;2023-09-30T08:01:59;7.78;;;3.00;;
14892;SDS011;7538;53.626;9.906;2023-09-30T08:04:29;8.10;;;3.40;;
14892;SDS011;7538;53.626;9.906;2023-09-30T08:06:56;11.90;;;2.85;;
14892;SDS011;7538;53.626;9.906;2023-09-30T08:09:24;9.93;;;3.20;;
14892;SDS011;7538;53.626;9.906;2023-09-30T08:11:53;9.40;;;3.30;;
14892;SDS011;7538;53.626;9.906;2023-09-30T08:14:21;10.00;;;3.72;;
14892;SDS011;7538;53.626;9.906;2023-09-30T08:16:49;7.38;;;2.97;;
14892;SDS011;7538;53.626;9.906;2023-09-30T08:19:16;8.80;;;3.40;;
14892;SDS011;7538;53.626;9.906;2023-09-30T08:21:45;8.20;;;2.97;;
14892;SDS011;7538;53.626;9.906;2023-09-30T08:24:12;8.27;;;3.05;;
14892;SDS011;7538;53.626;9.906;2023-09-30T08:26:39;8.82;;;3.20;;
14892;SDS011;7538;53.626;9.906;2023-09-30T08:29:06;8.65;;;3.30;;
14892;SDS011;7538;53.626;9.906;2023-09-30T08:31:33;11.23;;;3.63;;
14892;SDS011;7538;53.626;9.906;2023-09-30T08:34:01;6.82;;;2.92;;
14892;SDS011;7538;53.626;9.906;2023-09-30T08:36:29;11.23;;;3.38;;
14892;SDS011;7538;53.626;9.906;2023-09-30T08:38:57;6.32;;;2.75;;
14892;SDS011;7538;53.626;9.906;2023-09-30T08:41:27;8.40;;;2.90;;
14892;SDS011;7538;53.626;9.906;2023-09-30T08:43:59;9.65;;;3.08;;
14892;SDS011;7538;53.626;9.906;2023-09-30T08:46:27;8.25;;;3.20;;
14892;SDS011;7538;53.626;9.906;2023-09-30T08:48:57;9.65;;;2.88;;
14892;SDS011;7538;53.626;9.906;2023-09-30T08:51:27;8.63;;;3.20;;
14892;SDS011;7538;53.626;9.906;2023-09-30T08:53:55;7.80;;;3.03;;
14892;SDS011;7538;53.626;9.906;2023-09-30T08:56:24;8.30;;;3.00;;
14892;SDS011;7538;53.626;9.906;2023-09-30T08:58:53;8.23;;;3.00;;
14892;SDS011;7538;53.626;9.906;2023-09-30T09:01:22;9.00;;;3.15;;
14892;SDS011;7538;53.626;9.906;2023-09-30T09:03:50;7.95;;;3.00;;
14892;SDS011;7538;53.626;9.906;2023-09-30T09:06:18;7.20;;;3.05;;
14892;SDS011;7538;53.626;9.906;2023-09-30T09:08:47;7.22;;;2.78;;
14892;SDS011;7538;53.626;9.906;2023-09-30T09:11:14;10.32;;;2.92;;
14892;SDS011;7538;53.626;9.906;2023-09-30T09:13:45;7.50;;;3.45;;
14892;SDS011;7538;53.626;9.906;2023-09-30T09:16:15;7.50;;;2.53;;
14892;SDS011;7538;53.626;9.906;2023-09-30T09:18:43;7.03;;;2.92;;
14892;SDS011;7538;53.626;9.906;2023-09-30T09:21:11;5.72;;;2.80;;
14892;SDS011;7538;53.626;9.906;2023-09-30T09:23:40;7.53;;;2.80;;
14892;SDS011;7538;53.626;9.906;2023-09-30T09:26:10;9.23;;;3.03;;
14892;SDS011;7538;53.626;9.906;2023-09-30T09:28:39;8.77;;;2.80;;
14892;SDS011;7538;53.626;9.906;2023-09-30T09:31:18;11.20;;;2.67;;
14892;SDS011;7538;53.626;9.906;2023-09-30T09:33:47;8.80;;;2.97;;
14892;SDS011;7538;53.626;9.906;2023-09-30T09:36:14;7.40;;;3.20;;
14892;SDS011;7538;53.626;9.906;2023-09-30T09:38:44;7.32;;;2.88;;
14892;SDS011;7538;53.626;9.906;2023-09-30T09:41:14;9.27;;;2.92;;
14892;SDS011;7538;53.626;9.906;2023-09-30T09:43:42;8.82;;;3.03;;
14892;SDS011;7538;53.626;9.906;2023-09-30T09:46:09;7.93;;;2.42;;
14892;SDS011;7538;53.626;9.906;2023-09-30T09:48:37;7.80;;;2.72;;
14892;SDS011;7538;53.626;9.906;2023-09-30T09:51:04;7.45;;;2.75;;
14892;SDS011;7538;53.626;9.906;2023-09-30T09:53:34;8.73;;;2.83;;
14892;SDS011;7538;53.626;9.906;2023-09-30T09:56:02;6.82;;;2.75;;
14892;SDS011;7538;53.626;9.906;2023-09-30T09:58:33;8.15;;;2.72;;
14892;SDS011;7538;53.626;9.906;2023-09-30T10:01:01;10.05;;;3.00;;
14892;SDS011;7538;53.626;9.906;2023-09-30T10:03:28;5.40;;;2.33;;
14892;SDS011;7538;53.626;9.906;2023-09-30T10:05:55;10.05;;;2.53;;
14892;SDS011;7538;53.626;9.906;2023-09-30T10:08:28;6.35;;;2.70;;
14892;SDS011;7538;53.626;9.906;2023-09-30T10:10:58;7.00;;;2.65;;
14892;SDS011;7538;53.626;9.906;2023-09-30T10:19:17;6.57;;;2.65;;
14892;SDS011;7538;53.626;9.906;2023-09-30T10:24:52;9.73;;;3.10;;
14892;SDS011;7538;53.626;9.906;2023-09-30T10:27:32;11.10;;;2.75;;
14892;SDS011;7538;53.626;9.906;2023-09-30T10:30:07;8.95;;;2.63;;
14892;SDS011;7538;53.626;9.906;2023-09-30T10:35:43;10.10;;;3.08;;
14892;SDS011;7538;53.626;9.906;2023-09-30T10:41:07;6.47;;;2.15;;
14892;SDS011;7538;53.626;9.906;2023-09-30T10:43:35;9.15;;;2.90;;
14892;SDS011;7538;53.626;9.906;2023-09-30T10:46:04;5.88;;;2.67;;
14892;SDS011;7538;53.626;9.906;2023-09-30T10:48:46;7.80;;;2.78;;
14892;SDS011;7538;53.626;9.906;2023-09-30T10:51:16;8.38;;;2.78;;
14892;SDS011;7538;53.626;9.906;2023-09-30T10:53:49;8.20;;;2.53;;
14892;SDS011;7538;53.626;9.906;2023-09-30T10:56:22;7.63;;;2.83;;
14892;SDS011;7538;53.626;9.906;2023-09-30T10:58:50;9.85;;;2.78;;
14892;SDS011;7538;53.626;9.906;2023-09-30T11:01:20;9.77;;;2.92;;
14892;SDS011;7538;53.626;9.906;2023-09-30T11:03:48;11.48;;;2.50;;
14892;SDS011;7538;53.626;9.906;2023-09-30T11:06:16;8.48;;;2.20;;
14892;SDS011;7538;53.626;9.906;2023-09-30T11:08:46;9.45;;;2.65;;
14892;SDS011;7538;53.626;9.906;2023-09-30T11:11:18;9.60;;;2.80;;
14892;SDS011;7538;53.626;9.906;2023-09-30T11:13:46;9.15;;;2.90;;
14892;SDS011;7538;53.626;9.906;2023-09-30T11:16:13;8.38;;;2.72;;
14892;SDS011;7538;53.626;9.906;2023-09-30T11:18:42;6.97;;;2.30;;
14892;SDS011;7538;53.626;9.906;2023-09-30T11:21:11;8.50;;;2.70;;
14892;SDS011;7538;53.626;9.906;2023-09-30T11:23:38;12.27;;;2.78;;
14892;SDS011;7538;53.626;9.906;2023-09-30T11:26:07;6.07;;;2.00;;
14892;SDS011;7538;53.626;9.906;2023-09-30T11:28:38;10.00;;;2.33;;
14892;SDS011;7538;53.626;9.906;2023-09-30T11:31:09;10.13;;;2.92;;
14892;SDS011;7538;53.626;9.906;2023-09-30T11:33:50;6.82;;;2.17;;
14892;SDS011;7538;53.626;9.906;2023-09-30T11:36:18;7.72;;;2.25;;
14892;SDS011;7538;53.626;9.906;2023-09-30T11:38:47;4.97;;;2.15;;
14892;SDS011;7538;53.626;9.906;2023-09-30T11:41:14;7.25;;;2.42;;
14892;SDS011;7538;53.626;9.906;2023-09-30T11:43:57;10.02;;;2.42;;
14892;SDS011;7538;53.626;9.906;2023-09-30T11:46:26;8.38;;;2.63;;
14892;SDS011;7538;53.626;9.906;2023-09-30T11:48:58;7.85;;;2.35;;
14892;SDS011;7538;53.626;9.906;2023-09-30T11:51:26;6.88;;;2.13;;
14892;SDS011;7538;53.626;9.906;2023-09-30T11:53:54;7.82;;;2.38;;
14892;SDS011;7538;53.626;9.906;2023-09-30T11:56:21;8.68;;;2.60;;
14892;SDS011;7538;53.626;9.906;2023-09-30T11:58:53;10.93;;;2.63;;
14892;SDS011;7538;53.626;9.906;2023-09-30T12:01:20;7.32;;;1.95;;
14892;SDS011;7538;53.626;9.906;2023-09-30T12:03:48;7.13;;;2.58;;
14892;SDS011;7538;53.626;9.906;2023-09-30T12:06:18;7.57;;;2.70;;
14892;SDS011;7538;53.626;9.906;2023-09-30T12:08:45;7.55;;;2.17;;
14892;SDS011;7538;53.626;9.906;2023-09-30T12:11:12;6.63;;;2.55;;
14892;SDS011;7538;53.626;9.906;2023-09-30T12:13:40;7.15;;;2.28;;
14892;SDS011;7538;53.626;9.906;2023-09-30T12:16:09;8.15;;;2.00;;
14892;SDS011;7538;53.626;9.906;2023-09-30T12:18:37;11.40;;;3.10;;
14892;SDS011;7538;53.626;9.906;2023-09-30T12:21:06;8.88;;;2.55;;
14892;SDS011;7538;53.626;9.906;2023-09-30T12:23:34;4.75;;;2.25;;
14892;SDS011;7538;53.626;9.906;2023-09-30T12:26:01;6.28;;;2.13;;
14892;SDS011;7538;53.626;9.906;2023-09-30T12:28:30;7.82;;;2.40;;
14892;SDS011;7538;53.626;9.906;2023-09-30T12:30:57;8.52;;;2.60;;
14892;SDS011;7538;53.626;9.906;2023-09-30T12:33:26;8.10;;;2.15;;
14892;SDS011;7538;53.626;9.906;2023-09-30T12:35:54;8.07;;;2.35;;
14892;SDS011;7538;53.626;9.906;2023-09-30T12:38:22;6.13;;;2.60;;
14892;SDS011;7538;53.626;9.906;2023-09-30T12:40:52;7.07;;;2.38;;
14892;SDS011;7538;53.626;9.906;2023-09-30T12:43:19;6.07;;;2.33;;
14892;SDS011;7538;53.626;9.906;2023-09-30T12:45:46;6.38;;;2.33;;
14892;SDS011;7538;53.626;9.906;2023-09-30T12:48:13;5.47;;;1.90;;
14892;SDS011;7538;53.626;9.906;2023-09-30T12:50:40;7.18;;;2.22;;
14892;SDS011;7538;53.626;9.906;2023-09-30T12:53:07;8.10;;;2.17;;
14892;SDS011;7538;53.626;9.906;2023-09-30T12:55:34;6.22;;;2.40;;
14892;SDS011;7538;53.626;9.906;2023-09-30T12:58:02;8.98;;;2.15;;
14892;SDS011;7538;53.626;9.906;2023-09-30T13:00:30;6.38;;;2.28;;
14892;SDS011;7538;53.626;9.906;2023-09-30T13:02:58;6.45;;;2.25;;
14892;SDS011;7538;53.626;9.906;2023-09-30T13:05:25;6.30;;;2.13;;
14892;SDS011;7538;53.626;9.906;2023-09-30T13:07:52;9.23;;;2.38;;
14892;SDS011;7538;53.626;9.906;2023-09-30T13:10:18;6.35;;;2.42;;
14892;SDS011;7538;53.626;9.906;2023-09-30T13:12:45;9.15;;;2.30;;
14892;SDS011;7538;53.626;9.906;2023-09-30T13:15:16;7.38;;;2.15;;
14892;SDS011;7538;53.626;9.906;2023-09-30T13:17:43;8.32;;;2.60;;
14892;SDS011;7538;53.626;9.906;2023-09-30T13:20:11;7.50;;;2.30;;
14892;SDS011;7538;53.626;9.906;2023-09-30T13:22:38;6.95;;;2.40;;
14892;SDS011;7538;53.626;9.906;2023-09-30T13:25:05;8.00;;;2.47;;
14892;SDS011;7538;53.626;9.906;2023-09-30T13:27:33;6.95;;;2.13;;
14892;SDS011;7538;53.626;9.906;2023-09-30T13:30:00;7.30;;;2.13;;
14892;SDS011;7538;53.626;9.906;2023-09-30T13:32:28;6.20;;;2.13;;
14892;SDS011;7538;53.626;9.906;2023-09-30T13:34:55;9.82;;;2.65;;
14892;SDS011;7538;53.626;9.906;2023-09-30T13:37:23;7.38;;;2.40;;
14892;SDS011;7538;53.626;9.906;2023-09-30T13:39:55;7.30;;;2.15;;
14892;SDS011;7538;53.626;9.906;2023-09-30T13:42:21;7.20;;;2.38;;
14892;SDS011;7538;53.626;9.906;2023-09-30T13:44:48;5.75;;;2.33;;
14892;SDS011;7538;53.626;9.906;2023-09-30T13:47:16;5.43;;;2.53;;
14892;SDS011;7538;53.626;9.906;2023-09-30T13:49:44;7.28;;;2.42;;
14892;SDS011;7538;53.626;9.906;2023-09-30T13:52:11;8.70;;;2.47;;
14892;SDS011;7538;53.626;9.906;2023-09-30T13:54:38;4.18;;;2.10;;
14892;SDS011;7538;53.626;9.906;2023-09-30T13:57:05;7.68;;;2.58;;
14892;SDS011;7538;53.626;9.906;2023-09-30T13:59:33;5.45;;;2.05;;
14892;SDS011;7538;53.626;9.906;2023-09-30T14:02:01;7.15;;;2.10;;
14892;SDS011;7538;53.626;9.906;2023-09-30T14:04:29;5.82;;;2.03;;
14892;SDS011;7538;53.626;9.906;2023-09-30T14:06:58;8.80;;;2.50;;
14892;SDS011;7538;53.626;9.906;2023-09-30T14:09:27;5.05;;;2.20;;
14892;SDS011;7538;53.626;9.906;2023-09-30T14:11:54;8.20;;;2.97;;
14892;SDS011;7538;53.626;9.906;2023-09-30T14:14:23;9.07;;;2.30;;
14892;SDS011;7538;53.626;9.906;2023-09-30T14:16:50;10.32;;;2.50;;
14892;SDS011;7538;53.626;9.906;2023-09-30T14:19:17;8.38;;;2.42;;
14892;SDS011;7538;53.626;9.906;2023-09-30T14:21:45;6.18;;;2.10;;
14892;SDS011;7538;53.626;9.906;2023-09-30T14:24:15;8.80;;;2.30;;
14892;SDS011;7538;53.626;9.906;2023-09-30T14:26:42;7.70;;;2.17;;
14892;SDS011;7538;53.626;9.906;2023-09-30T14:29:09;6.40;;;2.25;;
14892;SDS011;7538;53.626;9.906;2023-09-30T14:31:37;7.50;;;2.38;;
14892;SDS011;7538;53.626;9.906;2023-09-30T14:34:04;9.30;;;2.28;;
14892;SDS011;7538;53.626;9.906;2023-09-30T14:36:31;9.43;;;2.60;;
14892;SDS011;7538;53.626;9.906;2023-09-30T14:38:58;9.05;;;2.20;;
14892;SDS011;7538;53.626;9.906;2023-09-30T14:41:27;6.53;;;2.17;;
14892;SDS011;7538;53.626;9.906;2023-09-30T14:43:54;8.05;;;2.63;;
14892;SDS011;7538;53.626;9.906;2023-09-30T14:46:20;8.13;;;2.25;;
14892;SDS011;7538;53.626;9.906;2023-09-30T14:48:48;6.75;;;2.20;;
14892;SDS011;7538;53.626;9.906;2023-09-30T14:51:15;6.20;;;2.13;;
14892;SDS011;7538;53.626;9.906;2023-09-30T14:53:41;7.75;;;2.13;;
14892;SDS011;7538;53.626;9.906;2023-09-30T14:56:14;7.13;;;2.17;;
14892;SDS011;7538;53.626;9.906;2023-09-30T14:58:43;9.27;;;2.90;;
14892;SDS011;7538;53.626;9.906;2023-09-30T15:01:11;5.75;;;2.17;;
14892;SDS011;7538;53.626;9.906;2023-09-30T15:03:38;9.82;;;2.78;;
14892;SDS011;7538;53.626;9.906;2023-09-30T15:06:05;8.00;;;2.28;;
14892;SDS011;7538;53.626;9.906;2023-09-30T15:08:34;10.23;;;3.17;;
14892;SDS011;7538;53.626;9.906;2023-09-30T15:11:01;6.22;;;2.17;;
14892;SDS011;7538;53.626;9.906;2023-09-30T15:13:29;6.38;;;2.40;;